| time (UTC) | temp F | wind direction | speed knots | gust knots | rain 1hr in | rain 24hr in | rain mn in | humidity % | barometer mb |
| 20260502230838 | 47 | 243 | 4.3 | 5.2 | 0.00 | 0.00 | 0.00 | 51 | 1013.5 |
| 20260502230336 | 48 | 209 | 1.7 | 5.2 | 0.00 | 0.00 | 0.00 | 49 | 1013.4 |
| 20260502225832 | 47 | 263 | 1.7 | 3.5 | 0.00 | 0.00 | 0.00 | 51 | 1013.5 |
| 20260502225328 | 47 | 253 | 2.6 | 3.5 | 0.00 | 0.00 | 0.00 | 50 | 1013.7 |
| 20260502224826 | 47 | 265 | 1.7 | 2.6 | 0.00 | 0.00 | 0.00 | 50 | 1013.7 |
| 20260502224321 | 47 | 231 | 1.7 | 2.6 | 0.00 | 0.00 | 0.00 | 52 | 1013.6 |
| 20260502223819 | 47 | 230 | 1.7 | 2.6 | 0.00 | 0.00 | 0.00 | 54 | 1013.5 |
| 20260502223317 | 46 | 282 | 2.6 | 3.5 | 0.00 | 0.00 | 0.00 | 52 | 1013.5 |
| 20260502222815 | 46 | 285 | 1.7 | 3.5 | 0.00 | 0.00 | 0.00 | 51 | 1013.7 |
| 20260502222312 | 46 | 275 | 2.6 | 2.6 | 0.00 | 0.00 | 0.00 | 52 | 1013.6 |
| 20260502221808 | 47 | 16 | 0.9 | 2.6 | 0.00 | 0.00 | 0.00 | 51 | 1013.5 |
| 20260502221304 | 47 | 175 | 0.9 | 1.7 | 0.00 | 0.00 | 0.00 | 53 | 1013.6 |
| 20260502220801 | 47 | 197 | 1.7 | 3.5 | 0.00 | 0.00 | 0.00 | 50 | 1013.6 |
| 20260502220257 | 47 | 255 | 4.3 | 7.0 | 0.00 | 0.00 | 0.00 | 51 | 1013.4 |
| 20260502215754 | 47 | 247 | 4.3 | 7.8 | 0.00 | 0.00 | 0.00 | 50 | 1013.4 |
| 20260502215251 | 47 | 297 | 2.6 | 7.0 | 0.00 | 0.00 | 0.00 | 49 | 1013.3 |
| 20260502214748 | 47 | 272 | 3.5 | 8.7 | 0.00 | 0.00 | 0.00 | 50 | 1013.5 |
| 20260502214245 | 47 | 261 | 3.5 | 7.8 | 0.00 | 0.00 | 0.00 | 49 | 1013.4 |
| 20260502213742 | 49 | 304 | 5.2 | 7.0 | 0.00 | 0.00 | 0.00 | 49 | 1013.6 |
| 20260502213239 | 50 | 233 | 2.6 | 6.1 | 0.00 | 0.00 | 0.00 | 45 | 1013.6 |
| 20260502212738 | 51 | 277 | 5.2 | 9.6 | 0.00 | 0.00 | 0.00 | 43 | 1013.5 |
| 20260502212236 | 50 | 295 | 4.3 | 7.0 | 0.00 | 0.00 | 0.00 | 46 | 1013.4 |
| 20260502211731 | 49 | 244 | 4.3 | 7.0 | 0.00 | 0.00 | 0.00 | 48 | 1013.4 |
| 20260502211229 | 50 | 155 | 0.9 | 3.5 | 0.00 | 0.00 | 0.00 | 48 | 1013.4 |
| 20260502210726 | 51 | 325 | 7.0 | 9.6 | 0.00 | 0.00 | 0.00 | 44 | 1013.6 |
| 20260502210223 | 50 | 265 | 1.7 | 8.7 | 0.00 | 0.00 | 0.00 | 50 | 1013.4 |
| 20260502205720 | 47 | 290 | 6.1 | 7.8 | 0.00 | 0.00 | 0.00 | 48 | 1013.7 |
| 20260502205216 | 47 | 275 | 5.2 | 6.1 | 0.00 | 0.00 | 0.00 | 50 | 1013.6 |
| 20260502204713 | 46 | 252 | 3.5 | 7.8 | 0.00 | 0.00 | 0.00 | 48 | 1013.8 |
| 20260502204211 | 47 | 245 | 4.3 | 7.8 | 0.00 | 0.00 | 0.00 | 49 | 1013.6 |
| 20260502203708 | 47 | 238 | 3.5 | 8.7 | 0.00 | 0.00 | 0.00 | 50 | 1013.7 |
| 20260502203206 | 48 | 224 | 4.3 | 7.8 | 0.00 | 0.00 | 0.00 | 48 | 1013.9 |
| 20260502202700 | 50 | 288 | 3.5 | 7.8 | 0.00 | 0.00 | 0.00 | 41 | 1013.9 |
| 20260502202159 | 48 | 219 | 1.7 | 2.6 | 0.00 | 0.00 | 0.00 | 48 | 1014.0 |
| 20260502201656 | 48 | 294 | 5.2 | 7.0 | 0.00 | 0.00 | 0.00 | 47 | 1014.1 |
| 20260502201152 | 48 | 271 | 2.6 | 5.2 | 0.00 | 0.00 | 0.00 | 48 | 1013.9 |
| 20260502200648 | 49 | 247 | 4.3 | 9.6 | 0.00 | 0.00 | 0.00 | 48 | 1014.1 |
| 20260502200144 | 48 | 215 | 1.7 | 3.5 | 0.00 | 0.00 | 0.00 | 50 | 1014.1 |
| 20260502195643 | 48 | 257 | 5.2 | 7.8 | 0.00 | 0.00 | 0.00 | 50 | 1014.0 |
| 20260502195139 | 48 | 248 | 3.5 | 7.0 | 0.00 | 0.00 | 0.00 | 49 | 1014.1 |
| 20260502194636 | 48 | 273 | 3.5 | 7.8 | 0.00 | 0.00 | 0.00 | 46 | 1014.0 |
| 20260502194133 | 49 | 280 | 6.1 | 7.0 | 0.00 | 0.00 | 0.00 | 46 | 1014.2 |
| 20260502193629 | 49 | 295 | 4.3 | 7.0 | 0.00 | 0.00 | 0.00 | 44 | 1014.1 |
| 20260502193126 | 48 | 230 | 1.7 | 6.1 | 0.00 | 0.00 | 0.00 | 48 | 1014.3 |
| 20260502192621 | 48 | 245 | 1.7 | 3.5 | 0.00 | 0.00 | 0.00 | 49 | 1014.4 |
| 20260502192119 | 48 | 251 | 3.5 | 8.7 | 0.00 | 0.00 | 0.00 | 47 | 1014.3 |
| 20260502191616 | 49 | 249 | 5.2 | 7.0 | 0.00 | 0.00 | 0.00 | 44 | 1014.6 |
| 20260502191113 | 50 | 244 | 2.6 | 3.5 | 0.00 | 0.00 | 0.00 | 44 | 1014.4 |
| 20260502190611 | 47 | 304 | 0.9 | 6.1 | 0.00 | 0.00 | 0.00 | 50 | 1014.6 |
| 20260502190108 | 47 | 242 | 5.2 | 6.1 | 0.00 | 0.00 | 0.00 | 48 | 1014.7 |
| 20260502185602 | 48 | 248 | 2.6 | 7.0 | 0.00 | 0.00 | 0.00 | 47 | 1014.7 |
| 20260502185100 | 48 | 299 | 3.5 | 5.2 | 0.00 | 0.00 | 0.00 | 49 | 1014.6 |
| 20260502184556 | 48 | 236 | 4.3 | 8.7 | 0.00 | 0.00 | 0.00 | 45 | 1014.7 |
| 20260502184051 | 50 | 276 | 4.3 | 7.0 | 0.00 | 0.00 | 0.00 | 44 | 1014.8 |
| 20260502183548 | 49 | 302 | 2.6 | 3.5 | 0.00 | 0.00 | 0.00 | 48 | 1014.7 |
| 20260502183044 | 47 | 267 | 5.2 | 7.0 | 0.00 | 0.00 | 0.00 | 48 | 1014.9 |
| 20260502182539 | 47 | 275 | 3.5 | 8.7 | 0.00 | 0.00 | 0.00 | 49 | 1014.8 |
| 20260502182036 | 47 | 359 | 0.9 | 5.2 | 0.00 | 0.00 | 0.00 | 48 | 1014.8 |
| 20260502181534 | 47 | 251 | 2.6 | 7.0 | 0.00 | 0.00 | 0.00 | 49 | 1014.9 |
| 20260502181032 | 47 | 273 | 3.5 | 7.8 | 0.00 | 0.00 | 0.00 | 47 | 1014.9 |
| 20260502180529 | 49 | 323 | 5.2 | 8.7 | 0.00 | 0.00 | 0.00 | 47 | 1015.1 |
| 20260502170448 | 46 | 268 | 5.2 | 6.1 | 0.00 | 0.00 | 0.00 | 48 | 1015.2 |
| 20260502163931 | 46 | 275 | 1.7 | 3.5 | 0.00 | 0.00 | 0.00 | 48 | 1015.5 |
| 20260502163427 | 46 | 275 | 2.6 | 7.0 | 0.00 | 0.00 | 0.00 | 51 | 1015.6 |
| 20260502162925 | 45 | 273 | 2.6 | 7.0 | 0.00 | 0.00 | 0.00 | 52 | 1015.7 |
| 20260502162422 | 47 | 3 | 5.2 | 6.1 | 0.00 | 0.00 | 0.00 | 49 | 1015.5 |
| 20260502161919 | 46 | 320 | 7.8 | 11.3 | 0.00 | 0.00 | 0.00 | 49 | 1015.3 |
| 20260502161415 | 44 | 328 | 0.9 | 8.7 | 0.00 | 0.00 | 0.00 | 53 | 1015.6 |
| 20260502160913 | 45 | 239 | 6.1 | 8.7 | 0.00 | 0.00 | 0.00 | 50 | 1015.6 |
| 20260502160411 | 46 | 190 | 0.9 | 2.6 | 0.00 | 0.00 | 0.00 | 52 | 1015.9 |
| 20260502152334 | 43 | 44 | 1.7 | 3.5 | 0.00 | 0.00 | 0.00 | 62 | 1015.5 |
| 20260502151832 | 44 | 325 | 3.5 | 6.1 | 0.00 | 0.00 | 0.00 | 57 | 1015.4 |
| 20260502151328 | 46 | 316 | 1.7 | 2.6 | 0.00 | 0.00 | 0.00 | 52 | 1015.6 |
| 20260502150826 | 44 | 49 | 0.9 | 3.5 | 0.00 | 0.00 | 0.00 | 59 | 1015.5 |
| 20260502150322 | 44 | 112 | 0.9 | 2.6 | 0.00 | 0.00 | 0.00 | 57 | 1015.4 |
| 20260502130710 | 40 | 347 | 6.1 | 7.8 | 0.00 | 0.00 | 0.00 | 71 | 1015.5 |
| 20260502130208 | 40 | 1 | 3.5 | 6.1 | 0.00 | 0.00 | 0.00 | 73 | 1015.6 |
| 20260502123654 | 38 | 198 | 0.9 | 5.2 | 0.00 | 0.00 | 0.00 | 76 | 1015.5 |
| 20260502123150 | 38 | 14 | 0.9 | 7.8 | 0.00 | 0.00 | 0.00 | 76 | 1015.7 |
| 20260502122647 | 39 | 16 | 3.5 | 3.5 | 0.00 | 0.00 | 0.00 | 77 | 1015.6 |
| 20260502122143 | 38 | 31 | 3.5 | 5.2 | 0.00 | 0.00 | 0.00 | 76 | 1015.4 |
| 20260502121642 | 38 | 331 | 2.6 | 5.2 | 0.00 | 0.00 | 0.00 | 78 | 1015.4 |
| 20260502121139 | 37 | 82 | 0.9 | 3.5 | 0.00 | 0.00 | 0.00 | 77 | 1015.4 |
| 20260502120635 | 38 | 151 | 0.9 | 2.6 | 0.00 | 0.00 | 0.00 | 77 | 1015.3 |
| 20260502120132 | 38 | 3 | 1.7 | 5.2 | 0.00 | 0.00 | 0.00 | 78 | 1015.3 |
| 20260502115630 | 37 | 357 | 1.7 | 3.5 | 0.00 | 0.00 | 0.00 | 79 | 1015.3 |
| 20260502115126 | 37 | 93 | 0.9 | 3.5 | 0.00 | 0.00 | 0.00 | 78 | 1015.2 |
| 20260502114622 | 37 | 132 | 0.0 | 1.7 | 0.00 | 0.00 | 0.00 | 80 | 1015.3 |
| 20260502114120 | 37 | 118 | 0.0 | 1.7 | 0.00 | 0.00 | 0.00 | 81 | 1015.2 |
| 20260502113617 | 36 | 125 | 0.0 | 2.6 | 0.00 | 0.00 | 0.00 | 82 | 1015.1 |
| 20260502113115 | 36 | 151 | 0.9 | 0.9 | 0.00 | 0.00 | 0.00 | 83 | 1014.8 |
| 20260502112612 | 35 | 123 | 0.0 | 0.9 | 0.00 | 0.00 | 0.00 | 85 | 1015.0 |
| 20260502112110 | 34 | 99 | 0.9 | 1.7 | 0.00 | 0.00 | 0.00 | 86 | 1014.9 |
| 20260502111607 | 34 | 145 | 0.0 | 0.9 | 0.00 | 0.00 | 0.00 | 87 | 1015.1 |
| 20260502111104 | 33 | 145 | 0.0 | 1.7 | 0.00 | 0.00 | 0.00 | 89 | 1015.0 |
| 20260502110602 | 32 | 143 | 0.0 | 0.9 | 0.00 | 0.00 | 0.00 | 90 | 1014.8 |
| 20260502110059 | 31 | 155 | 0.9 | 0.9 | 0.00 | 0.00 | 0.00 | 90 | 1014.9 |
| 20260502105556 | 31 | 156 | 0.0 | 1.7 | 0.00 | 0.00 | 0.00 | 90 | 1014.8 |
| 20260502105054 | 31 | 167 | 0.9 | 1.7 | 0.00 | 0.00 | 0.00 | 90 | 1014.8 |
| 20260502104551 | 31 | 152 | 0.9 | 0.9 | 0.00 | 0.00 | 0.00 | 90 | 1014.8 |
| 20260502104048 | 31 | 152 | 0.0 | 0.9 | 0.00 | 0.00 | 0.00 | 89 | 1014.8 |
| 20260502103546 | 31 | 152 | 0.0 | 0.9 | 0.00 | 0.00 | 0.00 | 89 | 1014.7 |
| 20260502103044 | 31 | 152 | 0.0 | 0.9 | 0.00 | 0.00 | 0.00 | 88 | 1014.7 |
| 20260502102540 | 31 | 154 | 0.9 | 0.9 | 0.00 | 0.00 | 0.00 | 88 | 1014.9 |
| 20260502102037 | 31 | 157 | 0.0 | 0.9 | 0.00 | 0.00 | 0.00 | 88 | 1014.8 |
| 20260502101535 | 32 | 160 | 0.9 | 1.7 | 0.00 | 0.00 | 0.00 | 88 | 1014.8 |
| 20260502101033 | 32 | 177 | 0.9 | 1.7 | 0.00 | 0.00 | 0.00 | 88 | 1014.8 |
| 20260502100531 | 32 | 161 | 0.0 | 1.7 | 0.00 | 0.00 | 0.00 | 88 | 1014.7 |
| 20260502091506 | 31 | 154 | 0.9 | 0.9 | 0.00 | 0.00 | 0.00 | 88 | 1014.7 |
| 20260502091003 | 32 | 154 | 0.0 | 0.9 | 0.00 | 0.00 | 0.00 | 87 | 1014.6 |
| 20260502090500 | 32 | 165 | 0.9 | 1.7 | 0.00 | 0.00 | 0.00 | 86 | 1014.3 |
| 20260502071354 | 37 | 111 | 0.0 | 0.9 | 0.00 | 0.00 | 0.00 | 75 | 1014.0 |
| 20260502070853 | 37 | 108 | 0.0 | 1.7 | 0.00 | 0.00 | 0.00 | 74 | 1013.8 |
| 20260502070350 | 38 | 103 | 0.0 | 0.9 | 0.00 | 0.00 | 0.00 | 73 | 1013.9 |
| 20260502065849 | 38 | 113 | 0.0 | 2.6 | 0.00 | 0.00 | 0.00 | 73 | 1013.8 |
| 20260502065346 | 38 | 45 | 2.6 | 2.6 | 0.00 | 0.00 | 0.00 | 73 | 1014.0 |
| 20260502064844 | 38 | 39 | 1.7 | 2.6 | 0.00 | 0.00 | 0.00 | 74 | 1014.1 |
| 20260502064342 | 38 | 99 | 0.9 | 1.7 | 0.00 | 0.00 | 0.00 | 73 | 1014.1 |
| 20260502063839 | 38 | 113 | 0.0 | 0.0 | 0.00 | 0.00 | 0.00 | 73 | 1014.1 |
| 20260502063337 | 38 | 109 | 0.0 | 2.6 | 0.00 | 0.00 | 0.00 | 72 | 1014.0 |
| 20260502062834 | 38 | 15 | 1.7 | 6.1 | 0.00 | 0.00 | 0.00 | 72 | 1014.2 |
| 20260502062331 | 39 | 102 | 0.0 | 0.9 | 0.00 | 0.00 | 0.00 | 72 | 1014.3 |
| 20260502061830 | 39 | 48 | 1.7 | 3.5 | 0.00 | 0.00 | 0.00 | 71 | 1014.2 |
| 20260502061327 | 39 | 73 | 0.0 | 2.6 | 0.00 | 0.00 | 0.00 | 72 | 1014.3 |
| 20260502060823 | 39 | 16 | 4.3 | 5.2 | 0.00 | 0.00 | 0.00 | 70 | 1014.4 |
| 20260502060318 | 38 | 10 | 4.3 | 6.1 | 0.00 | 0.00 | 0.00 | 73 | 1014.4 |
| 20260502055816 | 38 | 120 | 0.9 | 1.7 | 0.00 | 0.00 | 0.00 | 76 | 1014.3 |
| 20260502055314 | 38 | 99 | 0.9 | 1.7 | 0.00 | 0.00 | 0.00 | 76 | 1014.3 |
| 20260502054813 | 38 | 114 | 0.0 | 0.0 | 0.00 | 0.00 | 0.00 | 75 | 1014.4 |
| 20260502054310 | 38 | 114 | 0.0 | 0.0 | 0.00 | 0.00 | 0.00 | 75 | 1014.3 |
| 20260502053808 | 39 | 106 | 0.0 | 0.9 | 0.00 | 0.00 | 0.00 | 75 | 1014.3 |
| 20260502053305 | 39 | 104 | 0.0 | 1.7 | 0.00 | 0.00 | 0.00 | 75 | 1014.1 |
| 20260502052802 | 39 | 29 | 1.7 | 1.7 | 0.00 | 0.00 | 0.00 | 74 | 1014.6 |
| 20260502052300 | 39 | 105 | 0.0 | 0.9 | 0.00 | 0.00 | 0.00 | 74 | 1014.4 |
| 20260502051758 | 39 | 46 | 3.5 | 5.2 | 0.00 | 0.00 | 0.00 | 74 | 1014.3 |
| 20260502051257 | 39 | 38 | 0.9 | 2.6 | 0.00 | 0.00 | 0.00 | 74 | 1014.2 |
| 20260502050752 | 39 | 90 | 0.9 | 5.2 | 0.00 | 0.00 | 0.00 | 75 | 1014.4 |
| 20260502050248 | 39 | 60 | 0.9 | 2.6 | 0.00 | 0.00 | 0.00 | 77 | 1014.0 |
| 20260502045746 | 39 | 54 | 0.9 | 5.2 | 0.00 | 0.00 | 0.00 | 77 | 1014.3 |
| 20260502045242 | 39 | 135 | 0.9 | 1.7 | 0.00 | 0.00 | 0.00 | 79 | 1014.2 |
| 20260502044739 | 39 | 113 | 0.0 | 1.7 | 0.00 | 0.00 | 0.00 | 80 | 1014.3 |
| 20260502044235 | 39 | 132 | 0.0 | 0.9 | 0.00 | 0.00 | 0.00 | 81 | 1014.2 |
| 20260502043733 | 39 | 141 | 0.0 | 0.9 | 0.00 | 0.00 | 0.00 | 81 | 1014.2 |
| 20260502043231 | 39 | 122 | 0.9 | 1.7 | 0.00 | 0.00 | 0.00 | 83 | 1014.1 |
| 20260502042730 | 39 | 115 | 0.0 | 0.9 | 0.00 | 0.00 | 0.00 | 84 | 1014.1 |
| 20260502042227 | 39 | 107 | 0.0 | 0.0 | 0.00 | 0.00 | 0.00 | 84 | 1014.2 |
| 20260502041725 | 39 | 91 | 0.0 | 0.9 | 0.00 | 0.00 | 0.00 | 83 | 1014.0 |
| 20260502041222 | 39 | 104 | 0.0 | 0.9 | 0.00 | 0.00 | 0.00 | 83 | 1013.9 |
| 20260502040719 | 39 | 95 | 0.0 | 0.9 | 0.00 | 0.00 | 0.00 | 84 | 1013.9 |
| 20260502040216 | 39 | 46 | 0.9 | 2.6 | 0.00 | 0.00 | 0.00 | 85 | 1014.0 |
| 20260502035712 | 38 | 24 | 1.7 | 2.6 | 0.00 | 0.01 | 0.01 | 88 | 1013.9 |
| 20260502035209 | 38 | 16 | 3.5 | 5.2 | 0.00 | 0.01 | 0.01 | 92 | 1013.9 |
| 20260502034706 | 37 | 142 | 0.0 | 0.0 | 0.00 | 0.01 | 0.01 | 92 | 1013.9 |
| 20260502034205 | 37 | 143 | 0.0 | 0.0 | 0.00 | 0.01 | 0.01 | 92 | 1013.5 |
| 20260502033702 | 37 | 143 | 0.0 | 0.0 | 0.00 | 0.01 | 0.01 | 92 | 1013.7 |
| 20260502033200 | 37 | 127 | 0.0 | 0.0 | 0.00 | 0.01 | 0.01 | 92 | 1013.6 |
| 20260502032656 | 36 | 125 | 0.0 | 0.9 | 0.00 | 0.01 | 0.01 | 92 | 1013.5 |
| 20260502032152 | 35 | 125 | 0.0 | 0.0 | 0.00 | 0.01 | 0.01 | 90 | 1013.6 |
| 20260502031650 | 35 | 125 | 0.0 | 0.0 | 0.00 | 0.01 | 0.01 | 89 | 1013.7 |
| 20260502031148 | 35 | 125 | 0.0 | 0.0 | 0.00 | 0.01 | 0.01 | 89 | 1013.6 |
| 20260502030646 | 35 | 125 | 0.0 | 0.0 | 0.00 | 0.01 | 0.01 | 89 | 1013.6 |
| 20260502030144 | 35 | 125 | 0.0 | 0.9 | 0.00 | 0.01 | 0.01 | 88 | 1013.6 |
| 20260502025641 | 35 | 124 | 0.0 | 0.0 | 0.00 | 0.01 | 0.01 | 86 | 1013.6 |
| 20260502025139 | 35 | 124 | 0.0 | 0.0 | 0.00 | 0.01 | 0.01 | 86 | 1013.6 |
| 20260502024637 | 36 | 124 | 0.0 | 0.0 | 0.00 | 0.01 | 0.01 | 85 | 1013.8 |
| 20260502024134 | 36 | 124 | 0.0 | 0.0 | 0.00 | 0.01 | 0.01 | 85 | 1013.5 |
| 20260502023632 | 36 | 130 | 0.0 | 0.0 | 0.00 | 0.01 | 0.01 | 85 | 1013.5 |
| 20260502023129 | 36 | 130 | 0.0 | 0.9 | 0.00 | 0.01 | 0.01 | 85 | 1013.5 |
| 20260502022626 | 36 | 129 | 0.0 | 0.0 | 0.00 | 0.01 | 0.01 | 84 | 1013.8 |
| 20260502022123 | 37 | 129 | 0.0 | 0.0 | 0.00 | 0.01 | 0.01 | 83 | 1013.7 |
| 20260502021620 | 37 | 129 | 0.0 | 0.9 | 0.00 | 0.01 | 0.01 | 82 | 1013.6 |
| 20260502021117 | 37 | 127 | 0.0 | 0.0 | 0.00 | 0.01 | 0.01 | 81 | 1013.5 |
| 20260502020615 | 38 | 144 | 0.0 | 0.0 | 0.00 | 0.01 | 0.01 | 80 | 1013.6 |
| 20260502020112 | 39 | 152 | 0.9 | 0.9 | 0.00 | 0.01 | 0.01 | 80 | 1013.5 |
| 20260502015610 | 39 | 156 | 0.9 | 0.9 | 0.00 | 0.01 | 0.01 | 79 | 1013.4 |
| 20260502015106 | 39 | 131 | 0.0 | 1.7 | 0.00 | 0.01 | 0.01 | 78 | 1013.2 |
| 20260502014603 | 40 | 183 | 0.9 | 1.7 | 0.00 | 0.01 | 0.01 | 78 | 1013.2 |
| 20260502014100 | 40 | 265 | 0.9 | 3.5 | 0.00 | 0.01 | 0.01 | 78 | 1013.2 |
| 20260502013555 | 40 | 172 | 0.9 | 1.7 | 0.00 | 0.01 | 0.01 | 78 | 1013.1 |
| 20260502013052 | 40 | 168 | 0.9 | 1.7 | 0.00 | 0.01 | 0.01 | 78 | 1013.0 |
| 20260502012549 | 40 | 159 | 0.9 | 1.7 | 0.00 | 0.01 | 0.01 | 77 | 1013.2 |
| 20260502012047 | 41 | 153 | 0.9 | 0.9 | 0.00 | 0.01 | 0.01 | 76 | 1013.0 |
| 20260502011543 | 41 | 162 | 0.9 | 0.9 | 0.00 | 0.01 | 0.01 | 76 | 1013.0 |
| 20260502011039 | 41 | 174 | 0.0 | 1.7 | 0.00 | 0.01 | 0.01 | 75 | 1013.0 |
| 20260502010537 | 42 | 270 | 2.6 | 2.6 | 0.00 | 0.01 | 0.01 | 74 | 1013.0 |
| 20260502010033 | 42 | 188 | 1.7 | 1.7 | 0.00 | 0.01 | 0.01 | 74 | 1013.0 |
| 20260502005531 | 42 | 156 | 0.9 | 0.9 | 0.00 | 0.01 | 0.01 | 74 | 1012.7 |
| 20260502005029 | 42 | 156 | 0.9 | 1.7 | 0.00 | 0.01 | 0.01 | 74 | 1012.9 |
| 20260502004524 | 42 | 338 | 0.9 | 2.6 | 0.00 | 0.01 | 0.01 | 74 | 1012.9 |
| 20260502004021 | 42 | 200 | 0.9 | 5.2 | 0.00 | 0.01 | 0.01 | 73 | 1012.9 |
| 20260502003519 | 42 | 196 | 0.9 | 2.6 | 0.00 | 0.01 | 0.01 | 73 | 1012.8 |
| 20260502003015 | 42 | 168 | 0.0 | 1.7 | 0.00 | 0.01 | 0.01 | 74 | 1012.9 |
| 20260502002512 | 42 | 205 | 0.9 | 3.5 | 0.00 | 0.01 | 0.01 | 73 | 1012.9 |
| 20260502002010 | 42 | 148 | 0.9 | 1.7 | 0.00 | 0.01 | 0.01 | 73 | 1012.8 |
| 20260502001507 | 43 | 176 | 0.9 | 1.7 | 0.00 | 0.01 | 0.01 | 72 | 1012.8 |
| 20260502001004 | 43 | 213 | 1.7 | 3.5 | 0.00 | 0.01 | 0.01 | 72 | 1012.7 |
| 20260502000503 | 43 | 264 | 1.7 | 2.6 | 0.00 | 0.01 | 0.01 | 72 | 1012.7 |
| 20260501235959 | 43 | 167 | 0.9 | 2.6 | 0.00 | 0.01 | 0.01 | 73 | 1012.7 |
| 20260501235454 | 43 | 9 | 3.5 | 5.2 | 0.00 | 0.01 | 0.01 | 73 | 1012.7 |
| 20260501234950 | 43 | 90 | 0.9 | 5.2 | 0.00 | 0.01 | 0.01 | 73 | 1012.6 |
| 20260501234447 | 43 | 306 | 1.7 | 6.1 | 0.00 | 0.01 | 0.01 | 72 | 1012.4 |
| 20260501233945 | 43 | 252 | 1.7 | 2.6 | 0.00 | 0.01 | 0.01 | 73 | 1012.7 |
| 20260501233443 | 43 | 172 | 0.0 | 1.7 | 0.00 | 0.01 | 0.01 | 73 | 1012.4 |
| 20260501232938 | 43 | 258 | 2.6 | 5.2 | 0.00 | 0.01 | 0.01 | 73 | 1012.6 |
| 20260501232436 | 43 | 271 | 2.6 | 3.5 | 0.00 | 0.01 | 0.01 | 72 | 1012.4 |
| 20260501231932 | 44 | 242 | 0.9 | 1.7 | 0.00 | 0.01 | 0.01 | 72 | 1012.3 |
| 20260501231431 | 44 | 189 | 0.0 | 2.6 | 0.00 | 0.01 | 0.01 | 72 | 1012.2 |